メインページ
METAR-TAF:

METAR-TAF

空港 :

Arviat, ヌナブト準州, カナダ

緯度: 61-06N, 経度: 094-04W, 海抜: 10m

現時点の気象観測

当レポートは36分前の11:00(UTC)に作成
南西の風 8kt
気温 -27°C
湿度 83%
気圧 1012 hPa
視程: 14.5km
晴天

METAR: CYEK 141100Z AUTO 23008KT 9SM CLR M27/M29 A2989 RMK SLP124

時間: 05:36 (11:36 UTC)

予報

当レポートは5時間58分前の05:38(UTC)に作成
予報は14日の 06時(UTC)から 14日の 18時(UTC)まで有効
西/北西の風 10kt
視程: 10km
高度2000ftの雲はほとんどない
14日の 1000時(UTC)から
西/南西の風 12kt
視程: 10km
高度2000ftの雲は散在している
14日の 10時(UTC)から 14日の 18時(UTC)まで一時的に
高度2000ftの千切れ雲あり

TAF: CYEK 140538Z 1406/1418 29010KT P6SM FEW020 FM141000 25012KT P6SM SCT020 TEMPO 1410/1418 BKN020 RMK FCST BASED ON AUTO OBS. NXT FCST BY 141200Z

4,000以上の空港の気象観測と天気予報(METAR報とTAF報)

利用可能な観測所は地図上に黄色い丸と赤い丸で示す。

丸の上にカーソルを重ねると観測所名を参照できる。

次にクリックすると気象観測と天気予報を参照できる。

マップの切り替え:黒色「×」印の緑ボタンをクリックして拡大、「-」印の緑ボタンをクリックして縮小、緑色の三角印をクリックして隣りの地図に切り替え


METAR-TAF: